createdAt,value
2023-05-22T00:00:52.828Z,6.80
2023-05-22T00:05:58.911Z,7.53
2023-05-22T00:11:00.563Z,7.22
2023-05-22T00:16:02.494Z,7.60
2023-05-22T00:21:04.495Z,6.90
2023-05-22T00:26:06.104Z,6.85
2023-05-22T00:31:07.802Z,6.22
2023-05-22T00:36:09.590Z,6.88
2023-05-22T00:41:11.222Z,6.60
2023-05-22T00:46:12.962Z,6.68
2023-05-22T00:51:14.963Z,6.75
2023-05-22T00:56:17.257Z,7.07
2023-05-22T01:01:19.016Z,7.10
2023-05-22T01:06:21.517Z,7.68
2023-05-22T01:11:28.911Z,7.57
2023-05-22T01:16:54.764Z,7.60
2023-05-22T01:21:59.204Z,7.88
2023-05-22T01:27:20.084Z,8.20
2023-05-22T01:32:23.561Z,7.95
2023-05-22T01:37:27.658Z,8.13
2023-05-22T01:42:29.753Z,8.55
2023-05-22T01:47:33.803Z,8.02
2023-05-22T01:53:08.647Z,7.55
2023-05-22T01:58:32.617Z,8.10
2023-05-22T02:03:35.811Z,7.72
2023-05-22T02:08:39.030Z,7.05
2023-05-22T02:13:40.667Z,7.55
2023-05-22T02:18:42.970Z,7.68
2023-05-22T02:23:44.749Z,8.05
2023-05-22T02:28:46.337Z,7.75
2023-05-22T02:33:48.407Z,7.65
2023-05-22T02:38:50.075Z,7.55
2023-05-22T02:43:51.917Z,7.00
2023-05-22T02:48:53.599Z,7.57
2023-05-22T02:53:55.240Z,6.90
2023-05-22T02:58:59.598Z,7.18
2023-05-22T03:04:01.455Z,7.70
2023-05-22T03:09:04.322Z,7.07
2023-05-22T03:14:05.972Z,7.07
2023-05-22T03:19:12.246Z,7.32
2023-05-22T03:24:14.227Z,8.18
2023-05-22T03:29:16.017Z,7.00
2023-05-22T03:34:18.827Z,7.10
2023-05-22T03:39:22.824Z,6.75
2023-05-22T03:44:31.385Z,7.13
2023-05-22T03:49:33.180Z,8.43
2023-05-22T03:54:34.836Z,9.00
2023-05-22T03:59:38.071Z,9.13
2023-05-22T04:04:39.849Z,8.13
2023-05-22T04:09:41.660Z,8.65
2023-05-22T04:14:43.294Z,8.55
2023-05-22T04:19:44.944Z,8.52
2023-05-22T04:24:49.062Z,8.35
2023-05-22T04:29:51.139Z,8.00
2023-05-22T04:34:53.012Z,7.47
2023-05-22T04:39:58.127Z,7.07
2023-05-22T04:44:59.980Z,7.38
2023-05-22T04:50:02.494Z,7.78
2023-05-22T04:55:05.968Z,7.50
2023-05-22T05:00:09.011Z,7.22
2023-05-22T05:05:12.428Z,7.50
2023-05-22T05:10:14.536Z,6.65
2023-05-22T05:15:16.937Z,6.63
2023-05-22T05:20:18.950Z,6.95
2023-05-22T05:25:20.631Z,7.05
2023-05-22T05:30:22.315Z,7.55
2023-05-22T05:35:52.850Z,6.85
2023-05-22T05:40:58.385Z,7.13
2023-05-22T05:46:00.743Z,7.20
2023-05-22T05:51:03.693Z,7.68
2023-05-22T05:56:09.941Z,7.00
2023-05-22T06:01:13.294Z,8.13
2023-05-22T06:06:15.373Z,7.22
2023-05-22T06:11:45.982Z,6.85
2023-05-22T06:16:48.247Z,6.72
2023-05-22T06:21:52.019Z,6.22
2023-05-22T06:26:55.726Z,6.75
2023-05-22T06:31:57.529Z,6.93
2023-05-22T06:36:59.619Z,6.40
2023-05-22T06:42:06.614Z,6.28
2023-05-22T06:47:28.225Z,6.28
2023-05-22T06:52:30.171Z,6.10
2023-05-22T06:57:34.683Z,6.30
2023-05-22T07:02:39.892Z,5.97
2023-05-22T07:07:58.538Z,5.95
2023-05-22T07:13:00.895Z,5.82
2023-05-22T07:18:03.902Z,5.43
2023-05-22T07:23:05.888Z,5.05
2023-05-22T07:28:10.753Z,4.72
2023-05-22T07:33:24.120Z,5.30
2023-05-22T07:38:26.596Z,5.40
2023-05-22T07:43:34.990Z,4.68
2023-05-22T07:48:36.955Z,4.38
2023-05-22T07:53:38.639Z,4.20
2023-05-22T07:58:41.484Z,3.90
2023-05-22T08:03:43.521Z,3.80
2023-05-22T08:08:45.508Z,4.05
2023-05-22T08:13:47.841Z,3.70
2023-05-22T08:18:50.072Z,3.75
2023-05-22T08:23:51.726Z,4.63
2023-05-22T08:28:54.141Z,3.65
2023-05-22T08:34:02.237Z,3.63
2023-05-22T08:39:04.246Z,3.50
2023-05-22T08:44:05.984Z,3.70
2023-05-22T08:49:09.289Z,3.60
2023-05-22T08:54:11.027Z,3.50
2023-05-22T08:59:12.881Z,3.50
2023-05-22T09:04:14.561Z,3.92
2023-05-22T09:09:16.247Z,3.60
2023-05-22T09:14:18.711Z,3.80
2023-05-22T09:19:20.662Z,3.42
2023-05-22T09:24:22.465Z,4.18
2023-05-22T09:29:24.092Z,4.13
2023-05-22T09:34:32.883Z,3.85
2023-05-22T09:39:46.887Z,4.05
2023-05-22T09:44:49.386Z,4.15
2023-05-22T09:49:51.102Z,4.38
2023-05-22T09:54:56.749Z,4.00
2023-05-22T09:59:59.495Z,3.63
2023-05-22T10:05:06.758Z,4.22
2023-05-22T10:10:09.658Z,3.65
2023-05-22T10:15:11.757Z,3.70
2023-05-22T10:20:14.944Z,3.83
2023-05-22T10:25:18.405Z,3.63
2023-05-22T10:30:36.905Z,3.55
2023-05-22T10:36:08.542Z,3.63
2023-05-22T10:41:11.482Z,3.38
2023-05-22T10:46:13.306Z,3.38
2023-05-22T10:51:21.083Z,3.63
2023-05-22T10:56:25.354Z,3.92
2023-05-22T11:01:27.616Z,3.17
2023-05-22T11:06:43.480Z,3.53
2023-05-22T11:11:46.299Z,2.97
2023-05-22T11:16:48.082Z,3.17
2023-05-22T11:21:49.752Z,3.13
2023-05-22T11:27:07.809Z,3.15
2023-05-22T11:32:09.808Z,2.97
2023-05-22T11:37:11.639Z,2.92
2023-05-22T11:42:13.339Z,3.10
2023-05-22T11:47:15.078Z,3.15
2023-05-22T11:52:17.331Z,3.33
2023-05-22T11:57:19.834Z,3.00
2023-05-22T12:02:21.538Z,3.13
2023-05-22T12:07:24.209Z,2.92
2023-05-22T12:12:26.177Z,3.25
2023-05-22T12:17:28.615Z,3.45
2023-05-22T12:22:30.297Z,3.30
2023-05-22T12:27:33.547Z,3.50
2023-05-22T12:32:35.906Z,3.28
2023-05-22T12:37:37.580Z,3.15
2023-05-22T12:42:39.226Z,3.17
2023-05-22T12:47:40.941Z,3.10
2023-05-22T12:52:42.612Z,3.58
2023-05-22T12:57:44.361Z,3.55
2023-05-22T13:02:46.062Z,3.45
2023-05-22T13:07:47.776Z,3.42
2023-05-22T13:12:51.325Z,3.65
2023-05-22T13:17:53.061Z,3.33
2023-05-22T13:22:54.948Z,3.38
2023-05-22T13:27:57.442Z,3.63
2023-05-22T13:32:59.137Z,3.70
2023-05-22T13:38:00.816Z,3.20
2023-05-22T13:43:03.051Z,4.00
2023-05-22T13:48:04.698Z,3.50
2023-05-22T13:53:06.346Z,3.13
2023-05-22T13:58:08.063Z,3.35
2023-05-22T14:03:11.514Z,3.20
2023-05-22T14:08:13.787Z,3.35
2023-05-22T14:13:15.730Z,3.10
2023-05-22T14:18:17.469Z,3.45
2023-05-22T14:23:19.437Z,3.55
2023-05-22T14:28:21.056Z,3.30
2023-05-22T14:33:22.735Z,3.40
2023-05-22T14:38:24.395Z,3.80
2023-05-22T14:43:25.992Z,3.72
2023-05-22T14:48:29.334Z,3.65
2023-05-22T14:53:31.039Z,3.30
2023-05-22T14:58:32.969Z,2.80
2023-05-22T15:03:34.652Z,3.83
2023-05-22T15:08:36.691Z,2.80
2023-05-22T15:13:38.307Z,3.10
2023-05-22T15:18:39.958Z,3.15
2023-05-22T15:23:41.766Z,3.25
2023-05-22T15:28:43.620Z,3.80
2023-05-22T15:33:46.481Z,3.30
2023-05-22T15:38:48.106Z,2.80
2023-05-22T15:43:52.581Z,3.03
2023-05-22T15:48:54.309Z,3.50
2023-05-22T15:53:57.254Z,3.42
2023-05-22T15:58:58.948Z,2.92
2023-05-22T16:04:01.353Z,3.28
2023-05-22T16:09:03.310Z,3.30
2023-05-22T16:14:05.034Z,3.20
2023-05-22T16:19:06.755Z,2.95
2023-05-22T16:24:09.839Z,2.97
2023-05-22T16:29:11.515Z,2.75
2023-05-22T16:34:13.173Z,2.90
2023-05-22T16:39:15.662Z,3.15
2023-05-22T16:44:17.439Z,3.20
2023-05-22T16:49:19.228Z,3.38
2023-05-22T16:54:21.499Z,3.15
2023-05-22T16:59:23.248Z,3.40
2023-05-22T17:04:24.946Z,3.40
2023-05-22T17:09:27.638Z,3.22
2023-05-22T17:14:29.418Z,3.88
2023-05-22T17:19:32.224Z,3.90
2023-05-22T17:24:34.374Z,3.38
2023-05-22T17:29:36.104Z,3.33
2023-05-22T17:34:37.729Z,3.58
2023-05-22T17:39:39.452Z,3.40
2023-05-22T17:44:41.136Z,3.60
2023-05-22T17:49:42.739Z,3.47
2023-05-22T17:54:44.399Z,3.65
2023-05-22T17:59:46.066Z,3.75
2023-05-22T18:04:48.502Z,3.63
2023-05-22T18:09:50.183Z,3.30
2023-05-22T18:14:51.997Z,3.45
2023-05-22T18:19:53.637Z,3.40
2023-05-22T18:24:55.281Z,3.13
2023-05-22T18:29:57.565Z,3.20
2023-05-22T18:34:59.981Z,3.30
2023-05-22T18:40:01.745Z,4.03
2023-05-22T18:45:03.877Z,3.55
2023-05-22T18:50:06.200Z,3.70
2023-05-22T18:55:08.407Z,3.30
2023-05-22T19:00:10.645Z,3.40
2023-05-22T19:05:12.381Z,3.40
2023-05-22T19:10:14.171Z,3.55
2023-05-22T19:15:15.877Z,3.60
2023-05-22T19:20:17.566Z,3.20
2023-05-22T19:25:19.396Z,3.58
2023-05-22T19:30:22.294Z,3.53
2023-05-22T19:35:23.959Z,3.20
2023-05-22T19:40:25.763Z,3.65
2023-05-22T19:45:27.767Z,3.38
2023-05-22T19:50:29.399Z,3.85
2023-05-22T19:55:31.834Z,3.80
2023-05-22T20:00:35.151Z,3.30
2023-05-22T20:05:36.797Z,3.95
2023-05-22T20:10:38.567Z,3.72
2023-05-22T20:15:41.177Z,3.65
2023-05-22T20:20:43.018Z,3.58
2023-05-22T20:25:44.722Z,3.65
2023-05-22T20:30:46.358Z,4.20
2023-05-22T20:35:49.264Z,3.75
2023-05-22T20:40:52.160Z,3.53
2023-05-22T20:45:54.177Z,6.38
2023-05-22T20:50:55.964Z,3.50
2023-05-22T20:55:57.769Z,3.60
2023-05-22T21:00:59.458Z,3.60
2023-05-22T21:06:01.165Z,3.90
2023-05-22T21:11:02.884Z,3.80
2023-05-22T21:16:04.700Z,3.88
2023-05-22T21:21:06.389Z,3.47
2023-05-22T21:26:08.060Z,3.47
2023-05-22T21:31:09.918Z,3.60
2023-05-22T21:36:11.546Z,3.60
2023-05-22T21:41:15.779Z,3.50
2023-05-22T21:46:17.425Z,3.55
2023-05-22T21:51:19.503Z,3.55
2023-05-22T21:56:21.261Z,3.28
2023-05-22T22:01:23.360Z,3.22
2023-05-22T22:06:25.017Z,3.67
2023-05-22T22:11:26.662Z,3.25
2023-05-22T22:16:28.551Z,3.70
2023-05-22T22:21:30.310Z,3.15
2023-05-22T22:26:32.285Z,3.50
2023-05-22T22:31:34.142Z,3.60
2023-05-22T22:36:35.815Z,3.47
2023-05-22T22:41:37.422Z,3.60
2023-05-22T22:46:39.108Z,3.67
2023-05-22T22:51:40.709Z,3.45
2023-05-22T22:56:42.309Z,4.05
2023-05-22T23:01:44.023Z,3.80
2023-05-22T23:06:46.156Z,3.72
2023-05-22T23:11:47.804Z,5.53
2023-05-22T23:16:49.428Z,5.13
2023-05-22T23:21:51.905Z,4.22
2023-05-22T23:26:53.575Z,3.70
2023-05-22T23:31:55.468Z,3.85
2023-05-22T23:36:57.277Z,3.60
2023-05-22T23:42:02.011Z,3.90
2023-05-22T23:47:04.189Z,4.10
2023-05-22T23:52:06.684Z,3.65
2023-05-22T23:57:08.263Z,3.85
